sensor_id;sensor_type;location;lat;lon;timestamp;P1;durP1;ratioP1;P2;durP2;ratioP2
52574;SDS011;38468;48.114;-1.684;2022-10-16T00:00:17;3.38;;;1.95;;
52574;SDS011;38468;48.114;-1.684;2022-10-16T00:02:18;2.65;;;1.40;;
52574;SDS011;38468;48.114;-1.684;2022-10-16T00:04:22;4.18;;;2.15;;
52574;SDS011;38468;48.114;-1.684;2022-10-16T00:06:23;6.65;;;3.15;;
52574;SDS011;38468;48.114;-1.684;2022-10-16T00:08:27;2.88;;;1.67;;
52574;SDS011;38468;48.114;-1.684;2022-10-16T00:10:28;6.97;;;2.80;;
52574;SDS011;38468;48.114;-1.684;2022-10-16T00:12:32;4.78;;;3.28;;
52574;SDS011;38468;48.114;-1.684;2022-10-16T00:14:33;8.95;;;3.75;;
52574;SDS011;38468;48.114;-1.684;2022-10-16T00:16:34;4.28;;;2.45;;
52574;SDS011;38468;48.114;-1.684;2022-10-16T00:18:35;9.68;;;3.90;;
52574;SDS011;38468;48.114;-1.684;2022-10-16T00:20:37;14.85;;;4.35;;
52574;SDS011;38468;48.114;-1.684;2022-10-16T00:22:38;3.95;;;2.60;;
52574;SDS011;38468;48.114;-1.684;2022-10-16T00:26:40;5.97;;;3.35;;
52574;SDS011;38468;48.114;-1.684;2022-10-16T00:28:41;6.90;;;3.90;;
52574;SDS011;38468;48.114;-1.684;2022-10-16T00:30:48;4.40;;;3.10;;
52574;SDS011;38468;48.114;-1.684;2022-10-16T00:32:49;6.03;;;4.03;;
52574;SDS011;38468;48.114;-1.684;2022-10-16T00:34:50;7.68;;;4.57;;
52574;SDS011;38468;48.114;-1.684;2022-10-16T00:36:51;4.70;;;3.05;;
52574;SDS011;38468;48.114;-1.684;2022-10-16T00:38:56;7.95;;;4.88;;
52574;SDS011;38468;48.114;-1.684;2022-10-16T00:40:59;7.70;;;4.50;;
52574;SDS011;38468;48.114;-1.684;2022-10-16T00:43:00;13.50;;;5.07;;
52574;SDS011;38468;48.114;-1.684;2022-10-16T00:45:01;5.20;;;3.67;;
52574;SDS011;38468;48.114;-1.684;2022-10-16T00:47:03;16.65;;;6.10;;
52574;SDS011;38468;48.114;-1.684;2022-10-16T00:49:10;12.65;;;5.25;;
52574;SDS011;38468;48.114;-1.684;2022-10-16T00:51:17;7.07;;;4.47;;
52574;SDS011;38468;48.114;-1.684;2022-10-16T00:53:21;10.65;;;5.00;;
52574;SDS011;38468;48.114;-1.684;2022-10-16T00:55:23;11.23;;;4.65;;
52574;SDS011;38468;48.114;-1.684;2022-10-16T00:57:25;9.07;;;5.78;;
52574;SDS011;38468;48.114;-1.684;2022-10-16T00:59:27;7.03;;;4.22;;
52574;SDS011;38468;48.114;-1.684;2022-10-16T01:01:32;10.10;;;5.25;;
52574;SDS011;38468;48.114;-1.684;2022-10-16T01:03:34;6.85;;;4.68;;
52574;SDS011;38468;48.114;-1.684;2022-10-16T01:05:39;7.57;;;4.93;;
52574;SDS011;38468;48.114;-1.684;2022-10-16T01:08:00;12.80;;;5.00;;
52574;SDS011;38468;48.114;-1.684;2022-10-16T01:12:40;7.68;;;5.22;;
52574;SDS011;38468;48.114;-1.684;2022-10-16T01:15:04;8.52;;;5.55;;
52574;SDS011;38468;48.114;-1.684;2022-10-16T01:17:12;18.08;;;5.32;;
52574;SDS011;38468;48.114;-1.684;2022-10-16T01:19:38;9.85;;;5.35;;
52574;SDS011;38468;48.114;-1.684;2022-10-16T01:21:42;9.15;;;4.75;;
52574;SDS011;38468;48.114;-1.684;2022-10-16T01:28:09;8.25;;;4.82;;
52574;SDS011;38468;48.114;-1.684;2022-10-16T01:30:31;13.15;;;5.20;;
52574;SDS011;38468;48.114;-1.684;2022-10-16T01:32:38;10.70;;;5.00;;
52574;SDS011;38468;48.114;-1.684;2022-10-16T01:34:45;10.18;;;5.20;;
52574;SDS011;38468;48.114;-1.684;2022-10-16T01:36:53;11.45;;;5.65;;
52574;SDS011;38468;48.114;-1.684;2022-10-16T01:38:58;14.85;;;5.40;;
52574;SDS011;38468;48.114;-1.684;2022-10-16T01:41:03;7.57;;;5.22;;
52574;SDS011;38468;48.114;-1.684;2022-10-16T01:43:27;11.88;;;5.13;;
52574;SDS011;38468;48.114;-1.684;2022-10-16T01:45:33;10.25;;;4.25;;
52574;SDS011;38468;48.114;-1.684;2022-10-16T01:47:36;10.25;;;4.93;;
52574;SDS011;38468;48.114;-1.684;2022-10-16T01:49:38;8.45;;;2.95;;
52574;SDS011;38468;48.114;-1.684;2022-10-16T01:51:40;14.50;;;5.07;;
52574;SDS011;38468;48.114;-1.684;2022-10-16T01:53:48;13.90;;;5.10;;
52574;SDS011;38468;48.114;-1.684;2022-10-16T01:55:53;8.90;;;3.28;;
52574;SDS011;38468;48.114;-1.684;2022-10-16T01:57:55;8.82;;;4.63;;
52574;SDS011;38468;48.114;-1.684;2022-10-16T02:00:02;11.25;;;4.90;;
52574;SDS011;38468;48.114;-1.684;2022-10-16T02:02:08;6.30;;;4.05;;
52574;SDS011;38468;48.114;-1.684;2022-10-16T02:04:13;10.05;;;3.30;;
52574;SDS011;38468;48.114;-1.684;2022-10-16T02:06:19;13.82;;;4.55;;
52574;SDS011;38468;48.114;-1.684;2022-10-16T02:08:20;9.63;;;3.03;;
52574;SDS011;38468;48.114;-1.684;2022-10-16T02:10:24;10.75;;;4.05;;
52574;SDS011;38468;48.114;-1.684;2022-10-16T02:12:26;12.80;;;5.20;;
52574;SDS011;38468;48.114;-1.684;2022-10-16T02:14:29;11.10;;;3.95;;
52574;SDS011;38468;48.114;-1.684;2022-10-16T02:16:34;9.35;;;3.50;;
52574;SDS011;38468;48.114;-1.684;2022-10-16T02:18:40;5.95;;;3.95;;
52574;SDS011;38468;48.114;-1.684;2022-10-16T02:22:55;13.85;;;3.65;;
52574;SDS011;38468;48.114;-1.684;2022-10-16T02:29:23;9.75;;;3.90;;
52574;SDS011;38468;48.114;-1.684;2022-10-16T02:31:27;10.15;;;5.10;;
52574;SDS011;38468;48.114;-1.684;2022-10-16T02:33:30;11.35;;;3.92;;
52574;SDS011;38468;48.114;-1.684;2022-10-16T02:35:33;8.27;;;3.50;;
52574;SDS011;38468;48.114;-1.684;2022-10-16T02:37:34;13.93;;;3.85;;
52574;SDS011;38468;48.114;-1.684;2022-10-16T02:39:37;7.15;;;4.80;;
52574;SDS011;38468;48.114;-1.684;2022-10-16T02:41:39;7.38;;;2.53;;
52574;SDS011;38468;48.114;-1.684;2022-10-16T02:43:39;12.50;;;3.00;;
52574;SDS011;38468;48.114;-1.684;2022-10-16T02:45:40;10.02;;;3.47;;
52574;SDS011;38468;48.114;-1.684;2022-10-16T02:47:41;8.48;;;3.17;;
52574;SDS011;38468;48.114;-1.684;2022-10-16T02:49:41;4.75;;;3.63;;
52574;SDS011;38468;48.114;-1.684;2022-10-16T02:51:42;11.02;;;4.03;;
52574;SDS011;38468;48.114;-1.684;2022-10-16T02:53:43;7.22;;;3.53;;
52574;SDS011;38468;48.114;-1.684;2022-10-16T02:55:43;7.97;;;3.42;;
52574;SDS011;38468;48.114;-1.684;2022-10-16T02:57:44;9.45;;;3.67;;
52574;SDS011;38468;48.114;-1.684;2022-10-16T02:59:45;5.35;;;3.42;;
52574;SDS011;38468;48.114;-1.684;2022-10-16T03:01:45;6.25;;;3.38;;
52574;SDS011;38468;48.114;-1.684;2022-10-16T03:03:46;10.10;;;4.53;;
52574;SDS011;38468;48.114;-1.684;2022-10-16T03:05:47;11.73;;;4.38;;
52574;SDS011;38468;48.114;-1.684;2022-10-16T03:07:47;5.82;;;3.58;;
52574;SDS011;38468;48.114;-1.684;2022-10-16T03:09:48;5.63;;;2.95;;
52574;SDS011;38468;48.114;-1.684;2022-10-16T03:11:49;5.40;;;2.92;;
52574;SDS011;38468;48.114;-1.684;2022-10-16T03:13:49;5.47;;;3.92;;
52574;SDS011;38468;48.114;-1.684;2022-10-16T03:15:50;11.15;;;3.97;;
52574;SDS011;38468;48.114;-1.684;2022-10-16T03:17:51;6.90;;;4.10;;
52574;SDS011;38468;48.114;-1.684;2022-10-16T03:19:52;7.30;;;3.10;;
52574;SDS011;38468;48.114;-1.684;2022-10-16T03:21:52;8.90;;;3.40;;
52574;SDS011;38468;48.114;-1.684;2022-10-16T03:23:53;6.70;;;4.43;;
52574;SDS011;38468;48.114;-1.684;2022-10-16T03:25:54;11.43;;;4.68;;
52574;SDS011;38468;48.114;-1.684;2022-10-16T03:27:54;8.65;;;4.20;;
52574;SDS011;38468;48.114;-1.684;2022-10-16T03:29:55;9.50;;;4.70;;
52574;SDS011;38468;48.114;-1.684;2022-10-16T03:31:56;10.13;;;5.00;;
52574;SDS011;38468;48.114;-1.684;2022-10-16T03:33:57;14.88;;;5.07;;
52574;SDS011;38468;48.114;-1.684;2022-10-16T03:35:57;8.75;;;4.35;;
52574;SDS011;38468;48.114;-1.684;2022-10-16T03:37:58;7.88;;;5.15;;
52574;SDS011;38468;48.114;-1.684;2022-10-16T03:39:58;6.38;;;5.47;;
52574;SDS011;38468;48.114;-1.684;2022-10-16T03:41:59;13.13;;;5.57;;
52574;SDS011;38468;48.114;-1.684;2022-10-16T03:44:00;7.82;;;5.53;;
52574;SDS011;38468;48.114;-1.684;2022-10-16T03:46:00;10.07;;;4.72;;
52574;SDS011;38468;48.114;-1.684;2022-10-16T03:48:01;8.52;;;5.47;;
52574;SDS011;38468;48.114;-1.684;2022-10-16T03:50:03;10.63;;;5.40;;
52574;SDS011;38468;48.114;-1.684;2022-10-16T03:52:04;10.97;;;4.77;;
52574;SDS011;38468;48.114;-1.684;2022-10-16T03:54:05;5.78;;;3.63;;
52574;SDS011;38468;48.114;-1.684;2022-10-16T03:56:06;12.45;;;5.88;;
52574;SDS011;38468;48.114;-1.684;2022-10-16T03:58:06;12.38;;;5.53;;
52574;SDS011;38468;48.114;-1.684;2022-10-16T04:00:07;15.75;;;6.80;;
52574;SDS011;38468;48.114;-1.684;2022-10-16T04:02:09;11.23;;;5.18;;
52574;SDS011;38468;48.114;-1.684;2022-10-16T04:04:09;10.50;;;4.50;;
52574;SDS011;38468;48.114;-1.684;2022-10-16T04:06:10;7.82;;;4.68;;
52574;SDS011;38468;48.114;-1.684;2022-10-16T04:08:11;16.27;;;4.53;;
52574;SDS011;38468;48.114;-1.684;2022-10-16T04:10:11;13.55;;;3.95;;
52574;SDS011;38468;48.114;-1.684;2022-10-16T04:12:12;9.38;;;5.20;;
52574;SDS011;38468;48.114;-1.684;2022-10-16T04:14:12;6.57;;;4.13;;
52574;SDS011;38468;48.114;-1.684;2022-10-16T04:16:13;7.93;;;3.75;;
52574;SDS011;38468;48.114;-1.684;2022-10-16T04:18:14;11.32;;;5.60;;
52574;SDS011;38468;48.114;-1.684;2022-10-16T04:20:14;6.18;;;4.55;;
52574;SDS011;38468;48.114;-1.684;2022-10-16T04:22:15;23.83;;;6.50;;
52574;SDS011;38468;48.114;-1.684;2022-10-16T04:24:16;9.63;;;3.92;;
52574;SDS011;38468;48.114;-1.684;2022-10-16T04:26:17;9.93;;;4.07;;
52574;SDS011;38468;48.114;-1.684;2022-10-16T04:28:17;16.55;;;5.32;;
52574;SDS011;38468;48.114;-1.684;2022-10-16T04:30:18;10.93;;;4.55;;
52574;SDS011;38468;48.114;-1.684;2022-10-16T04:32:19;10.55;;;4.40;;
52574;SDS011;38468;48.114;-1.684;2022-10-16T04:34:19;9.07;;;3.85;;
52574;SDS011;38468;48.114;-1.684;2022-10-16T04:36:20;8.18;;;4.30;;
52574;SDS011;38468;48.114;-1.684;2022-10-16T04:38:21;10.05;;;4.55;;
52574;SDS011;38468;48.114;-1.684;2022-10-16T04:40:21;11.55;;;5.63;;
52574;SDS011;38468;48.114;-1.684;2022-10-16T04:42:22;12.65;;;4.72;;
52574;SDS011;38468;48.114;-1.684;2022-10-16T04:44:23;18.98;;;5.85;;
52574;SDS011;38468;48.114;-1.684;2022-10-16T04:46:23;14.23;;;3.95;;
52574;SDS011;38468;48.114;-1.684;2022-10-16T04:48:24;14.63;;;6.15;;
52574;SDS011;38468;48.114;-1.684;2022-10-16T04:50:25;14.88;;;6.60;;
52574;SDS011;38468;48.114;-1.684;2022-10-16T04:52:26;8.00;;;4.80;;
52574;SDS011;38468;48.114;-1.684;2022-10-16T04:54:27;11.35;;;5.13;;
52574;SDS011;38468;48.114;-1.684;2022-10-16T04:56:28;5.90;;;4.18;;
52574;SDS011;38468;48.114;-1.684;2022-10-16T04:58:28;15.50;;;4.25;;
52574;SDS011;38468;48.114;-1.684;2022-10-16T05:00:29;9.82;;;3.88;;
52574;SDS011;38468;48.114;-1.684;2022-10-16T05:02:30;10.95;;;4.72;;
52574;SDS011;38468;48.114;-1.684;2022-10-16T05:04:30;13.43;;;4.65;;
52574;SDS011;38468;48.114;-1.684;2022-10-16T05:06:31;12.63;;;4.85;;
52574;SDS011;38468;48.114;-1.684;2022-10-16T05:08:32;9.77;;;5.60;;
52574;SDS011;38468;48.114;-1.684;2022-10-16T05:10:32;12.65;;;5.25;;
52574;SDS011;38468;48.114;-1.684;2022-10-16T05:12:33;9.60;;;4.88;;
52574;SDS011;38468;48.114;-1.684;2022-10-16T05:14:33;10.07;;;4.68;;
52574;SDS011;38468;48.114;-1.684;2022-10-16T05:16:34;12.25;;;4.85;;
52574;SDS011;38468;48.114;-1.684;2022-10-16T05:18:35;10.90;;;4.60;;
52574;SDS011;38468;48.114;-1.684;2022-10-16T05:20:35;19.00;;;5.85;;
52574;SDS011;38468;48.114;-1.684;2022-10-16T05:22:36;9.13;;;5.00;;
52574;SDS011;38468;48.114;-1.684;2022-10-16T05:24:37;12.50;;;6.15;;
52574;SDS011;38468;48.114;-1.684;2022-10-16T05:26:37;11.68;;;5.55;;
52574;SDS011;38468;48.114;-1.684;2022-10-16T05:28:38;11.18;;;4.38;;
52574;SDS011;38468;48.114;-1.684;2022-10-16T05:30:39;11.93;;;4.45;;
52574;SDS011;38468;48.114;-1.684;2022-10-16T05:32:39;13.75;;;5.95;;
52574;SDS011;38468;48.114;-1.684;2022-10-16T05:34:40;11.77;;;4.47;;
52574;SDS011;38468;48.114;-1.684;2022-10-16T05:36:41;16.60;;;5.82;;
52574;SDS011;38468;48.114;-1.684;2022-10-16T05:38:41;7.80;;;4.63;;
52574;SDS011;38468;48.114;-1.684;2022-10-16T05:40:42;8.48;;;4.75;;
52574;SDS011;38468;48.114;-1.684;2022-10-16T05:42:43;14.55;;;4.78;;
52574;SDS011;38468;48.114;-1.684;2022-10-16T05:44:44;13.50;;;5.63;;
52574;SDS011;38468;48.114;-1.684;2022-10-16T05:46:45;11.65;;;6.07;;
52574;SDS011;38468;48.114;-1.684;2022-10-16T05:50:47;17.63;;;7.22;;
52574;SDS011;38468;48.114;-1.684;2022-10-16T05:52:48;12.45;;;5.28;;
52574;SDS011;38468;48.114;-1.684;2022-10-16T05:54:48;9.25;;;5.47;;
52574;SDS011;38468;48.114;-1.684;2022-10-16T05:56:49;11.10;;;6.03;;
52574;SDS011;38468;48.114;-1.684;2022-10-16T05:58:50;15.50;;;6.97;;
52574;SDS011;38468;48.114;-1.684;2022-10-16T06:00:54;10.60;;;5.47;;
52574;SDS011;38468;48.114;-1.684;2022-10-16T06:02:58;10.38;;;4.20;;
52574;SDS011;38468;48.114;-1.684;2022-10-16T06:04:59;15.55;;;5.65;;
52574;SDS011;38468;48.114;-1.684;2022-10-16T06:07:00;20.15;;;6.22;;
52574;SDS011;38468;48.114;-1.684;2022-10-16T06:09:00;17.02;;;6.70;;
52574;SDS011;38468;48.114;-1.684;2022-10-16T06:11:02;16.73;;;6.22;;
52574;SDS011;38468;48.114;-1.684;2022-10-16T06:13:04;12.70;;;5.90;;
52574;SDS011;38468;48.114;-1.684;2022-10-16T06:15:04;12.52;;;5.53;;
52574;SDS011;38468;48.114;-1.684;2022-10-16T06:17:05;11.68;;;4.85;;
52574;SDS011;38468;48.114;-1.684;2022-10-16T06:19:06;20.70;;;5.40;;
52574;SDS011;38468;48.114;-1.684;2022-10-16T06:21:08;13.63;;;5.15;;
52574;SDS011;38468;48.114;-1.684;2022-10-16T06:23:10;9.38;;;5.38;;
52574;SDS011;38468;48.114;-1.684;2022-10-16T06:25:11;12.35;;;5.18;;
52574;SDS011;38468;48.114;-1.684;2022-10-16T06:27:12;14.45;;;6.35;;
52574;SDS011;38468;48.114;-1.684;2022-10-16T06:29:13;16.75;;;7.53;;
52574;SDS011;38468;48.114;-1.684;2022-10-16T06:31:13;13.70;;;6.70;;
52574;SDS011;38468;48.114;-1.684;2022-10-16T06:33:14;11.38;;;6.60;;
52574;SDS011;38468;48.114;-1.684;2022-10-16T06:35:15;15.45;;;7.38;;
52574;SDS011;38468;48.114;-1.684;2022-10-16T06:37:16;22.45;;;8.30;;
52574;SDS011;38468;48.114;-1.684;2022-10-16T06:39:16;17.20;;;7.28;;
52574;SDS011;38468;48.114;-1.684;2022-10-16T06:41:18;17.13;;;9.63;;
52574;SDS011;38468;48.114;-1.684;2022-10-16T06:43:19;26.15;;;9.75;;
52574;SDS011;38468;48.114;-1.684;2022-10-16T06:45:20;23.45;;;7.85;;
52574;SDS011;38468;48.114;-1.684;2022-10-16T06:47:21;20.77;;;6.30;;
52574;SDS011;38468;48.114;-1.684;2022-10-16T06:49:21;31.90;;;6.82;;
52574;SDS011;38468;48.114;-1.684;2022-10-16T06:51:23;24.92;;;8.63;;
52574;SDS011;38468;48.114;-1.684;2022-10-16T06:53:25;19.25;;;8.52;;
52574;SDS011;38468;48.114;-1.684;2022-10-16T06:55:27;20.48;;;7.57;;
52574;SDS011;38468;48.114;-1.684;2022-10-16T06:57:28;18.65;;;7.28;;
52574;SDS011;38468;48.114;-1.684;2022-10-16T06:59:29;23.17;;;9.52;;
52574;SDS011;38468;48.114;-1.684;2022-10-16T07:01:30;26.08;;;8.02;;
52574;SDS011;38468;48.114;-1.684;2022-10-16T07:03:31;30.92;;;9.90;;
52574;SDS011;38468;48.114;-1.684;2022-10-16T07:05:36;19.80;;;8.82;;
52574;SDS011;38468;48.114;-1.684;2022-10-16T07:07:43;13.68;;;7.32;;
52574;SDS011;38468;48.114;-1.684;2022-10-16T07:09:44;13.38;;;7.68;;
52574;SDS011;38468;48.114;-1.684;2022-10-16T07:11:45;20.10;;;9.48;;
52574;SDS011;38468;48.114;-1.684;2022-10-16T07:13:46;22.38;;;8.88;;
52574;SDS011;38468;48.114;-1.684;2022-10-16T07:15:47;19.60;;;6.82;;
52574;SDS011;38468;48.114;-1.684;2022-10-16T07:17:48;11.00;;;5.82;;
52574;SDS011;38468;48.114;-1.684;2022-10-16T07:19:48;11.23;;;6.35;;
52574;SDS011;38468;48.114;-1.684;2022-10-16T07:21:49;9.90;;;5.90;;
52574;SDS011;38468;48.114;-1.684;2022-10-16T07:23:50;12.15;;;6.15;;
52574;SDS011;38468;48.114;-1.684;2022-10-16T07:25:54;11.13;;;5.90;;
52574;SDS011;38468;48.114;-1.684;2022-10-16T07:27:55;15.63;;;6.28;;
52574;SDS011;38468;48.114;-1.684;2022-10-16T07:29:56;6.57;;;4.53;;
52574;SDS011;38468;48.114;-1.684;2022-10-16T07:31:57;9.43;;;5.20;;
52574;SDS011;38468;48.114;-1.684;2022-10-16T07:34:00;12.23;;;5.05;;
52574;SDS011;38468;48.114;-1.684;2022-10-16T07:36:01;4.18;;;2.75;;
52574;SDS011;38468;48.114;-1.684;2022-10-16T07:38:01;9.77;;;3.75;;
52574;SDS011;38468;48.114;-1.684;2022-10-16T07:40:02;5.05;;;2.58;;
52574;SDS011;38468;48.114;-1.684;2022-10-16T07:42:03;8.43;;;4.43;;
52574;SDS011;38468;48.114;-1.684;2022-10-16T07:44:04;9.98;;;2.70;;
52574;SDS011;38468;48.114;-1.684;2022-10-16T07:46:04;4.30;;;1.77;;
52574;SDS011;38468;48.114;-1.684;2022-10-16T07:48:05;5.78;;;2.00;;
52574;SDS011;38468;48.114;-1.684;2022-10-16T07:50:06;5.75;;;2.33;;
52574;SDS011;38468;48.114;-1.684;2022-10-16T07:52:07;3.83;;;1.77;;
52574;SDS011;38468;48.114;-1.684;2022-10-16T07:54:08;6.15;;;1.67;;
52574;SDS011;38468;48.114;-1.684;2022-10-16T07:56:10;5.25;;;1.52;;
52574;SDS011;38468;48.114;-1.684;2022-10-16T07:58:11;2.47;;;1.95;;
52574;SDS011;38468;48.114;-1.684;2022-10-16T08:00:12;3.28;;;2.08;;
52574;SDS011;38468;48.114;-1.684;2022-10-16T08:02:13;4.53;;;1.50;;
52574;SDS011;38468;48.114;-1.684;2022-10-16T08:04:14;15.77;;;2.17;;
52574;SDS011;38468;48.114;-1.684;2022-10-16T08:06:15;2.28;;;1.60;;
52574;SDS011;38468;48.114;-1.684;2022-10-16T08:08:17;1.43;;;1.20;;
52574;SDS011;38468;48.114;-1.684;2022-10-16T08:10:18;4.05;;;1.40;;
52574;SDS011;38468;48.114;-1.684;2022-10-16T08:12:20;4.03;;;1.15;;
52574;SDS011;38468;48.114;-1.684;2022-10-16T08:14:21;1.35;;;0.95;;
52574;SDS011;38468;48.114;-1.684;2022-10-16T08:16:21;5.75;;;2.05;;
52574;SDS011;38468;48.114;-1.684;2022-10-16T08:18:23;3.43;;;1.23;;
52574;SDS011;38468;48.114;-1.684;2022-10-16T08:20:24;2.15;;;1.42;;
52574;SDS011;38468;48.114;-1.684;2022-10-16T08:22:25;3.53;;;1.45;;
52574;SDS011;38468;48.114;-1.684;2022-10-16T08:24:26;1.08;;;0.85;;
52574;SDS011;38468;48.114;-1.684;2022-10-16T08:26:27;1.70;;;1.30;;
52574;SDS011;38468;48.114;-1.684;2022-10-16T08:28:28;2.40;;;1.15;;
52574;SDS011;38468;48.114;-1.684;2022-10-16T08:30:28;3.83;;;1.50;;
52574;SDS011;38468;48.114;-1.684;2022-10-16T08:32:29;5.90;;;1.88;;
52574;SDS011;38468;48.114;-1.684;2022-10-16T08:34:30;5.72;;;1.58;;
52574;SDS011;38468;48.114;-1.684;2022-10-16T08:36:30;6.13;;;0.88;;
52574;SDS011;38468;48.114;-1.684;2022-10-16T08:38:31;1.33;;;1.05;;
52574;SDS011;38468;48.114;-1.684;2022-10-16T08:40:33;0.43;;;0.43;;
52574;SDS011;38468;48.114;-1.684;2022-10-16T08:49:39;3.83;;;0.82;;
52574;SDS011;38468;48.114;-1.684;2022-10-16T08:51:43;1.30;;;0.73;;
52574;SDS011;38468;48.114;-1.684;2022-10-16T08:53:49;6.43;;;0.77;;
52574;SDS011;38468;48.114;-1.684;2022-10-16T08:55:59;3.20;;;0.60;;
52574;SDS011;38468;48.114;-1.684;2022-10-16T08:58:00;0.55;;;0.55;;
52574;SDS011;38468;48.114;-1.684;2022-10-16T09:00:05;2.58;;;1.25;;
52574;SDS011;38468;48.114;-1.684;2022-10-16T09:12:12;0.82;;;0.47;;
52574;SDS011;38468;48.114;-1.684;2022-10-16T09:16:41;3.55;;;2.80;;
52574;SDS011;38468;48.114;-1.684;2022-10-16T09:19:00;6.60;;;2.97;;
52574;SDS011;38468;48.114;-1.684;2022-10-16T09:21:13;2.97;;;0.90;;
52574;SDS011;38468;48.114;-1.684;2022-10-16T09:25:23;0.77;;;0.57;;
52574;SDS011;38468;48.114;-1.684;2022-10-16T09:27:24;6.28;;;1.02;;
52574;SDS011;38468;48.114;-1.684;2022-10-16T09:29:29;1.52;;;1.00;;
52574;SDS011;38468;48.114;-1.684;2022-10-16T09:31:30;1.13;;;0.68;;
52574;SDS011;38468;48.114;-1.684;2022-10-16T09:33:37;2.63;;;0.75;;
52574;SDS011;38468;48.114;-1.684;2022-10-16T09:37:46;4.00;;;0.63;;
52574;SDS011;38468;48.114;-1.684;2022-10-16T09:39:51;1.20;;;1.00;;
52574;SDS011;38468;48.114;-1.684;2022-10-16T09:41:54;4.18;;;0.77;;
52574;SDS011;38468;48.114;-1.684;2022-10-16T09:43:59;5.70;;;1.13;;
52574;SDS011;38468;48.114;-1.684;2022-10-16T09:46:05;2.40;;;1.02;;
52574;SDS011;38468;48.114;-1.684;2022-10-16T09:48:11;3.40;;;1.17;;
52574;SDS011;38468;48.114;-1.684;2022-10-16T09:50:23;6.25;;;1.17;;
52574;SDS011;38468;48.114;-1.684;2022-10-16T09:52:29;3.15;;;0.70;;
52574;SDS011;38468;48.114;-1.684;2022-10-16T09:54:31;1.10;;;0.98;;
52574;SDS011;38468;48.114;-1.684;2022-10-16T09:56:33;1.45;;;0.90;;
52574;SDS011;38468;48.114;-1.684;2022-10-16T09:58:36;4.00;;;1.33;;
52574;SDS011;38468;48.114;-1.684;2022-10-16T10:00:39;0.90;;;0.77;;
52574;SDS011;38468;48.114;-1.684;2022-10-16T10:02:48;3.28;;;0.63;;
52574;SDS011;38468;48.114;-1.684;2022-10-16T10:04:50;2.53;;;0.80;;
52574;SDS011;38468;48.114;-1.684;2022-10-16T10:06:57;3.33;;;0.55;;
52574;SDS011;38468;48.114;-1.684;2022-10-16T10:09:00;0.95;;;0.70;;
52574;SDS011;38468;48.114;-1.684;2022-10-16T10:11:35;3.17;;;1.00;;
52574;SDS011;38468;48.114;-1.684;2022-10-16T10:14:03;3.20;;;1.30;;
52574;SDS011;38468;48.114;-1.684;2022-10-16T10:16:23;4.43;;;1.23;;
52574;SDS011;38468;48.114;-1.684;2022-10-16T10:18:24;0.63;;;0.63;;
52574;SDS011;38468;48.114;-1.684;2022-10-16T10:20:35;1.65;;;0.90;;
52574;SDS011;38468;48.114;-1.684;2022-10-16T10:24:39;4.32;;;1.63;;
52574;SDS011;38468;48.114;-1.684;2022-10-16T10:31:53;4.25;;;0.57;;
52574;SDS011;38468;48.114;-1.684;2022-10-16T10:36:27;1.83;;;0.85;;
52574;SDS011;38468;48.114;-1.684;2022-10-16T10:40:34;3.33;;;0.88;;
52574;SDS011;38468;48.114;-1.684;2022-10-16T10:43:08;1.67;;;1.02;;
52574;SDS011;38468;48.114;-1.684;2022-10-16T10:45:53;0.95;;;0.75;;
52574;SDS011;38468;48.114;-1.684;2022-10-16T10:48:12;2.78;;;1.02;;
52574;SDS011;38468;48.114;-1.684;2022-10-16T10:50:22;1.40;;;0.38;;
52574;SDS011;38468;48.114;-1.684;2022-10-16T10:52:52;1.05;;;0.95;;
52574;SDS011;38468;48.114;-1.684;2022-10-16T11:02:22;4.38;;;2.03;;
52574;SDS011;38468;48.114;-1.684;2022-10-16T11:07:15;4.90;;;1.13;;
52574;SDS011;38468;48.114;-1.684;2022-10-16T11:09:26;3.15;;;1.35;;
52574;SDS011;38468;48.114;-1.684;2022-10-16T11:14:06;2.80;;;1.75;;
52574;SDS011;38468;48.114;-1.684;2022-10-16T11:16:16;2.25;;;1.25;;
52574;SDS011;38468;48.114;-1.684;2022-10-16T11:18:26;7.85;;;2.13;;
52574;SDS011;38468;48.114;-1.684;2022-10-16T11:20:53;25.20;;;14.10;;
52574;SDS011;38468;48.114;-1.684;2022-10-16T11:25:36;9.30;;;4.57;;
52574;SDS011;38468;48.114;-1.684;2022-10-16T11:27:43;4.95;;;2.65;;
52574;SDS011;38468;48.114;-1.684;2022-10-16T11:29:55;2.60;;;2.20;;
52574;SDS011;38468;48.114;-1.684;2022-10-16T11:32:01;1.83;;;1.40;;
52574;SDS011;38468;48.114;-1.684;2022-10-16T11:36:39;9.57;;;1.77;;
52574;SDS011;38468;48.114;-1.684;2022-10-16T11:39:00;3.97;;;1.80;;
52574;SDS011;38468;48.114;-1.684;2022-10-16T11:41:27;4.32;;;1.30;;
52574;SDS011;38468;48.114;-1.684;2022-10-16T11:43:38;2.90;;;1.52;;
52574;SDS011;38468;48.114;-1.684;2022-10-16T11:45:49;5.18;;;1.67;;
52574;SDS011;38468;48.114;-1.684;2022-10-16T11:48:00;4.53;;;1.95;;
52574;SDS011;38468;48.114;-1.684;2022-10-16T11:56:57;9.63;;;3.38;;
52574;SDS011;38468;48.114;-1.684;2022-10-16T12:01:49;1.98;;;1.80;;
52574;SDS011;38468;48.114;-1.684;2022-10-16T12:08:25;7.30;;;2.35;;
52574;SDS011;38468;48.114;-1.684;2022-10-16T12:10:30;8.63;;;2.45;;
52574;SDS011;38468;48.114;-1.684;2022-10-16T12:12:38;3.10;;;1.80;;
52574;SDS011;38468;48.114;-1.684;2022-10-16T12:14:45;5.03;;;1.67;;
52574;SDS011;38468;48.114;-1.684;2022-10-16T12:19:11;5.63;;;3.05;;
52574;SDS011;38468;48.114;-1.684;2022-10-16T12:21:15;5.70;;;2.03;;
52574;SDS011;38468;48.114;-1.684;2022-10-16T12:23:19;3.65;;;1.80;;
52574;SDS011;38468;48.114;-1.684;2022-10-16T12:25:40;8.07;;;2.72;;
52574;SDS011;38468;48.114;-1.684;2022-10-16T12:27:53;2.72;;;1.90;;
52574;SDS011;38468;48.114;-1.684;2022-10-16T12:29:57;5.50;;;3.80;;
52574;SDS011;38468;48.114;-1.684;2022-10-16T12:32:01;17.63;;;11.02;;
52574;SDS011;38468;48.114;-1.684;2022-10-16T12:34:03;7.63;;;3.28;;
52574;SDS011;38468;48.114;-1.684;2022-10-16T12:36:06;6.50;;;2.75;;
52574;SDS011;38468;48.114;-1.684;2022-10-16T12:38:20;5.15;;;1.45;;
52574;SDS011;38468;48.114;-1.684;2022-10-16T12:44:34;3.00;;;1.65;;
52574;SDS011;38468;48.114;-1.684;2022-10-16T12:46:37;2.78;;;2.22;;
52574;SDS011;38468;48.114;-1.684;2022-10-16T12:48:41;4.57;;;1.98;;
52574;SDS011;38468;48.114;-1.684;2022-10-16T12:50:44;4.80;;;2.25;;
52574;SDS011;38468;48.114;-1.684;2022-10-16T12:52:45;4.18;;;2.55;;
52574;SDS011;38468;48.114;-1.684;2022-10-16T12:54:45;2.85;;;2.28;;
52574;SDS011;38468;48.114;-1.684;2022-10-16T12:59:12;5.35;;;2.00;;
52574;SDS011;38468;48.114;-1.684;2022-10-16T13:03:59;3.75;;;2.42;;
52574;SDS011;38468;48.114;-1.684;2022-10-16T13:06:22;1.58;;;1.48;;
52574;SDS011;38468;48.114;-1.684;2022-10-16T13:14:15;18.08;;;6.80;;
52574;SDS011;38468;48.114;-1.684;2022-10-16T13:28:19;4.80;;;3.00;;
52574;SDS011;38468;48.114;-1.684;2022-10-16T13:30:27;2.40;;;2.20;;
52574;SDS011;38468;48.114;-1.684;2022-10-16T13:32:29;2.47;;;1.65;;
52574;SDS011;38468;48.114;-1.684;2022-10-16T13:34:31;2.83;;;2.03;;
52574;SDS011;38468;48.114;-1.684;2022-10-16T13:36:35;2.30;;;2.03;;
52574;SDS011;38468;48.114;-1.684;2022-10-16T13:38:44;13.02;;;6.68;;
52574;SDS011;38468;48.114;-1.684;2022-10-16T13:40:48;14.27;;;10.05;;
52574;SDS011;38468;48.114;-1.684;2022-10-16T13:42:51;4.63;;;3.65;;
52574;SDS011;38468;48.114;-1.684;2022-10-16T13:44:58;2.30;;;2.10;;
52574;SDS011;38468;48.114;-1.684;2022-10-16T13:46:59;1.70;;;1.60;;
52574;SDS011;38468;48.114;-1.684;2022-10-16T13:49:11;6.82;;;1.90;;
52574;SDS011;38468;48.114;-1.684;2022-10-16T13:51:15;2.03;;;1.48;;
52574;SDS011;38468;48.114;-1.684;2022-10-16T13:53:18;1.58;;;1.48;;
52574;SDS011;38468;48.114;-1.684;2022-10-16T13:55:19;7.72;;;2.15;;
52574;SDS011;38468;48.114;-1.684;2022-10-16T13:57:21;7.03;;;1.67;;
52574;SDS011;38468;48.114;-1.684;2022-10-16T13:59:27;1.50;;;1.35;;
52574;SDS011;38468;48.114;-1.684;2022-10-16T14:01:34;4.97;;;1.88;;
52574;SDS011;38468;48.114;-1.684;2022-10-16T14:03:43;2.53;;;1.38;;